sensor_id;sensor_type;location;lat;lon;timestamp;pressure;altitude;pressure_sealevel;temperature;humidity
1652;BME280;823;49.028;8.454;2023-01-25T00:01:04;102226.72;;;6.62;56.20
1652;BME280;823;49.028;8.454;2023-01-25T00:06:05;102225.78;;;6.57;56.31
1652;BME280;823;49.028;8.454;2023-01-25T00:11:06;102221.31;;;6.42;56.43
1652;BME280;823;49.028;8.454;2023-01-25T00:16:06;102207.63;;;6.45;56.65
1652;BME280;823;49.028;8.454;2023-01-25T00:21:21;102208.69;;;6.58;56.13
1652;BME280;823;49.028;8.454;2023-01-25T00:26:21;102207.69;;;6.48;56.14
1652;BME280;823;49.028;8.454;2023-01-25T00:41:36;102190.69;;;6.59;56.13
1652;BME280;823;49.028;8.454;2023-01-25T00:46:37;102182.19;;;6.63;56.06
1652;BME280;823;49.028;8.454;2023-01-25T00:51:37;102186.19;;;6.40;56.47
1652;BME280;823;49.028;8.454;2023-01-25T00:56:37;102179.25;;;6.36;56.62
1652;BME280;823;49.028;8.454;2023-01-25T01:01:40;102168.25;;;6.46;56.85
1652;BME280;823;49.028;8.454;2023-01-25T01:06:41;102167.31;;;6.39;56.71
1652;BME280;823;49.028;8.454;2023-01-25T01:11:41;102155.41;;;6.46;56.63
1652;BME280;823;49.028;8.454;2023-01-25T01:16:41;102143.47;;;6.51;56.32
1652;BME280;823;49.028;8.454;2023-01-25T01:21:42;102156.06;;;6.33;56.86
1652;BME280;823;49.028;8.454;2023-01-25T01:26:42;102156.03;;;6.28;57.14
1652;BME280;823;49.028;8.454;2023-01-25T01:31:42;102163.84;;;6.37;56.71
1652;BME280;823;49.028;8.454;2023-01-25T01:36:43;102167.31;;;6.41;56.87
1652;BME280;823;49.028;8.454;2023-01-25T01:41:44;102158.91;;;6.51;56.26
1652;BME280;823;49.028;8.454;2023-01-25T01:46:53;102160.34;;;6.30;56.89
1652;BME280;823;49.028;8.454;2023-01-25T01:52:06;102161.44;;;6.48;56.63
1652;BME280;823;49.028;8.454;2023-01-25T01:57:14;102152.91;;;6.52;56.56
1652;BME280;823;49.028;8.454;2023-01-25T02:02:15;102156.16;;;6.39;56.76
1652;BME280;823;49.028;8.454;2023-01-25T02:07:23;102160.41;;;6.37;57.12
1652;BME280;823;49.028;8.454;2023-01-25T02:12:26;102155.41;;;6.46;56.72
1652;BME280;823;49.028;8.454;2023-01-25T02:22:40;102154.38;;;6.32;57.11
1652;BME280;823;49.028;8.454;2023-01-25T02:27:49;102150.25;;;6.44;57.00
1652;BME280;823;49.028;8.454;2023-01-25T02:32:50;102150.22;;;6.41;56.88
1652;BME280;823;49.028;8.454;2023-01-25T02:37:50;102134.81;;;6.44;56.88
1652;BME280;823;49.028;8.454;2023-01-25T02:42:51;102139.00;;;6.38;57.10
1652;BME280;823;49.028;8.454;2023-01-25T02:47:51;102123.59;;;6.38;57.11
1652;BME280;823;49.028;8.454;2023-01-25T02:52:51;102121.00;;;6.36;56.88
1652;BME280;823;49.028;8.454;2023-01-25T02:57:52;102121.81;;;6.34;57.19
1652;BME280;823;49.028;8.454;2023-01-25T03:02:52;102114.94;;;6.33;57.12
1652;BME280;823;49.028;8.454;2023-01-25T03:07:52;102123.63;;;6.42;57.05
1652;BME280;823;49.028;8.454;2023-01-25T03:12:52;102123.25;;;6.10;57.94
1652;BME280;823;49.028;8.454;2023-01-25T03:17:55;102126.19;;;6.41;57.04
1652;BME280;823;49.028;8.454;2023-01-25T03:22:55;102106.38;;;6.30;57.35
1652;BME280;823;49.028;8.454;2023-01-25T03:27:55;102119.81;;;6.08;58.19
1652;BME280;823;49.028;8.454;2023-01-25T03:32:56;102110.72;;;6.36;57.40
1652;BME280;823;49.028;8.454;2023-01-25T03:37:56;102111.41;;;6.24;57.74
1652;BME280;823;49.028;8.454;2023-01-25T03:42:56;102106.44;;;6.35;57.43
1652;BME280;823;49.028;8.454;2023-01-25T03:47:57;102101.31;;;6.38;57.48
1652;BME280;823;49.028;8.454;2023-01-25T03:52:57;102104.63;;;6.29;57.97
1652;BME280;823;49.028;8.454;2023-01-25T03:58:06;102108.03;;;6.27;57.60
1652;BME280;823;49.028;8.454;2023-01-25T04:03:06;102106.28;;;6.24;57.87
1652;BME280;823;49.028;8.454;2023-01-25T04:08:06;102101.13;;;6.21;58.00
1652;BME280;823;49.028;8.454;2023-01-25T04:13:07;102111.38;;;6.21;58.26
1652;BME280;823;49.028;8.454;2023-01-25T04:18:08;102106.38;;;6.29;58.04
1652;BME280;823;49.028;8.454;2023-01-25T04:23:09;102105.28;;;6.13;58.46
1652;BME280;823;49.028;8.454;2023-01-25T04:28:09;102094.34;;;6.26;57.98
1652;BME280;823;49.028;8.454;2023-01-25T04:33:10;102086.50;;;6.16;58.09
1652;BME280;823;49.028;8.454;2023-01-25T04:38:11;102083.13;;;6.23;58.27
1652;BME280;823;49.028;8.454;2023-01-25T04:43:13;102085.53;;;6.09;58.50
1652;BME280;823;49.028;8.454;2023-01-25T04:48:14;102086.47;;;6.12;58.66
1652;BME280;823;49.028;8.454;2023-01-25T04:53:14;102087.88;;;5.92;59.27
1652;BME280;823;49.028;8.454;2023-01-25T04:58:14;102081.06;;;5.95;59.30
1652;BME280;823;49.028;8.454;2023-01-25T05:03:15;102081.84;;;5.90;59.53
1652;BME280;823;49.028;8.454;2023-01-25T05:08:15;102075.88;;;5.92;59.33
1652;BME280;823;49.028;8.454;2023-01-25T05:13:15;102079.34;;;5.94;59.43
1652;BME280;823;49.028;8.454;2023-01-25T05:18:16;102079.34;;;5.94;59.43
1652;BME280;823;49.028;8.454;2023-01-25T05:23:16;102081.63;;;5.76;60.13
1652;BME280;823;49.028;8.454;2023-01-25T05:28:16;102079.75;;;5.62;60.60
1652;BME280;823;49.028;8.454;2023-01-25T05:33:17;102075.25;;;5.48;60.86
1652;BME280;823;49.028;8.454;2023-01-25T05:38:17;102079.56;;;5.50;60.88
1652;BME280;823;49.028;8.454;2023-01-25T05:43:17;102080.91;;;5.26;61.54
1652;BME280;823;49.028;8.454;2023-01-25T05:48:17;102082.69;;;5.31;61.59
1652;BME280;823;49.028;8.454;2023-01-25T05:53:23;102081.69;;;5.21;61.90
1652;BME280;823;49.028;8.454;2023-01-25T05:58:24;102084.50;;;5.38;61.34
1652;BME280;823;49.028;8.454;2023-01-25T06:03:24;102078.59;;;5.42;61.29
1652;BME280;823;49.028;8.454;2023-01-25T06:08:24;102062.16;;;5.29;61.62
1652;BME280;823;49.028;8.454;2023-01-25T06:13:25;102068.97;;;5.28;62.02
1652;BME280;823;49.028;8.454;2023-01-25T06:18:25;102050.34;;;5.40;61.33
1652;BME280;823;49.028;8.454;2023-01-25T06:23:26;102039.88;;;5.26;61.93
1652;BME280;823;49.028;8.454;2023-01-25T06:28:31;102041.84;;;5.44;61.31
1652;BME280;823;49.028;8.454;2023-01-25T06:33:31;102035.94;;;5.50;61.33
1652;BME280;823;49.028;8.454;2023-01-25T06:38:32;102030.81;;;5.50;61.22
1652;BME280;823;49.028;8.454;2023-01-25T06:43:33;102033.34;;;5.49;61.50
1652;BME280;823;49.028;8.454;2023-01-25T06:48:34;102032.44;;;5.45;61.21
1652;BME280;823;49.028;8.454;2023-01-25T06:53:37;102036.50;;;5.31;61.60
1652;BME280;823;49.028;8.454;2023-01-25T06:58:38;102033.72;;;5.17;61.53
1652;BME280;823;49.028;8.454;2023-01-25T07:03:39;102038.88;;;5.18;61.62
1652;BME280;823;49.028;8.454;2023-01-25T07:08:40;102037.72;;;5.01;62.12
1652;BME280;823;49.028;8.454;2023-01-25T07:13:41;102037.97;;;5.15;61.52
1652;BME280;823;49.028;8.454;2023-01-25T07:18:42;102027.78;;;5.19;61.40
1652;BME280;823;49.028;8.454;2023-01-25T07:23:43;102033.56;;;5.06;61.73
1652;BME280;823;49.028;8.454;2023-01-25T07:28:44;102040.28;;;4.99;62.12
1652;BME280;823;49.028;8.454;2023-01-25T07:33:52;102037.00;;;5.09;61.64
1652;BME280;823;49.028;8.454;2023-01-25T07:38:55;102033.72;;;5.17;61.47
1652;BME280;823;49.028;8.454;2023-01-25T07:43:56;102028.72;;;5.26;61.16
1652;BME280;823;49.028;8.454;2023-01-25T07:48:56;102032.06;;;5.22;61.24
1652;BME280;823;49.028;8.454;2023-01-25T07:54:00;102033.00;;;5.25;61.20
1652;BME280;823;49.028;8.454;2023-01-25T07:59:01;102041.19;;;5.01;61.92
1652;BME280;823;49.028;8.454;2023-01-25T08:04:04;102042.41;;;5.23;61.26
1652;BME280;823;49.028;8.454;2023-01-25T08:09:08;102036.22;;;5.14;61.33
1652;BME280;823;49.028;8.454;2023-01-25T08:14:10;102033.81;;;5.23;61.08
1652;BME280;823;49.028;8.454;2023-01-25T08:19:10;102023.53;;;5.21;61.34
1652;BME280;823;49.028;8.454;2023-01-25T08:24:11;102031.00;;;5.06;61.60
1652;BME280;823;49.028;8.454;2023-01-25T08:29:11;102028.53;;;5.14;61.40
1652;BME280;823;49.028;8.454;2023-01-25T08:34:12;102031.41;;;5.34;61.14
1652;BME280;823;49.028;8.454;2023-01-25T08:39:14;102024.72;;;5.43;60.51
1652;BME280;823;49.028;8.454;2023-01-25T08:44:14;102019.56;;;5.42;60.57
1652;BME280;823;49.028;8.454;2023-01-25T08:49:15;102014.56;;;5.51;60.26
1652;BME280;823;49.028;8.454;2023-01-25T08:54:15;102011.38;;;5.68;60.06
1652;BME280;823;49.028;8.454;2023-01-25T08:59:15;102013.72;;;5.54;59.94
1652;BME280;823;49.028;8.454;2023-01-25T09:04:16;102012.75;;;5.44;60.40
1652;BME280;823;49.028;8.454;2023-01-25T09:09:16;102012.91;;;5.56;60.48
1652;BME280;823;49.028;8.454;2023-01-25T09:14:16;102002.53;;;5.47;60.16
1652;BME280;823;49.028;8.454;2023-01-25T09:19:17;102001.94;;;5.67;59.84
1652;BME280;823;49.028;8.454;2023-01-25T09:24:17;102008.72;;;5.63;60.01
1652;BME280;823;49.028;8.454;2023-01-25T09:29:17;102000.34;;;5.76;59.51
1652;BME280;823;49.028;8.454;2023-01-25T09:34:17;101991.78;;;5.76;59.53
1652;BME280;823;49.028;8.454;2023-01-25T09:39:19;101995.38;;;5.89;59.11
1652;BME280;823;49.028;8.454;2023-01-25T09:54:59;101992.72;;;5.83;58.72
1652;BME280;823;49.028;8.454;2023-01-25T10:00:07;101996.09;;;5.80;58.29
1652;BME280;823;49.028;8.454;2023-01-25T10:05:15;101989.53;;;6.01;57.63
1652;BME280;823;49.028;8.454;2023-01-25T10:15:49;101994.84;;;6.16;57.11
1652;BME280;823;49.028;8.454;2023-01-25T10:20:54;101983.03;;;6.32;56.81
1652;BME280;823;49.028;8.454;2023-01-25T10:26:03;101982.78;;;6.09;56.51
1652;BME280;823;49.028;8.454;2023-01-25T10:31:18;101966.78;;;6.32;55.86
1652;BME280;823;49.028;8.454;2023-01-25T10:36:25;101966.13;;;6.57;55.38
1652;BME280;823;49.028;8.454;2023-01-25T10:46:28;101956.41;;;6.24;56.12
1652;BME280;823;49.028;8.454;2023-01-25T10:51:32;101954.81;;;6.37;55.90
1652;BME280;823;49.028;8.454;2023-01-25T10:56:37;101958.44;;;6.57;55.70
1652;BME280;823;49.028;8.454;2023-01-25T11:01:38;101948.03;;;6.45;55.70
1652;BME280;823;49.028;8.454;2023-01-25T11:06:46;101946.84;;;6.10;56.18
1652;BME280;823;49.028;8.454;2023-01-25T11:11:55;101936.59;;;6.12;56.45
1652;BME280;823;49.028;8.454;2023-01-25T11:16:58;101922.06;;;6.16;56.37
1652;BME280;823;49.028;8.454;2023-01-25T11:22:02;101911.13;;;6.37;55.86
1652;BME280;823;49.028;8.454;2023-01-25T11:27:13;101909.53;;;6.48;55.62
1652;BME280;823;49.028;8.454;2023-01-25T11:32:19;101887.16;;;6.36;55.99
1652;BME280;823;49.028;8.454;2023-01-25T12:13:58;101808.41;;;6.49;55.26
1652;BME280;823;49.028;8.454;2023-01-25T12:19:33;101802.44;;;6.50;55.09
1652;BME280;823;49.028;8.454;2023-01-25T12:24:48;101790.41;;;6.47;55.51
1652;BME280;823;49.028;8.454;2023-01-25T12:29:59;101777.56;;;6.46;55.72
1652;BME280;823;49.028;8.454;2023-01-25T12:40:47;101756.16;;;6.48;55.04
1652;BME280;823;49.028;8.454;2023-01-25T12:45:49;101758.66;;;6.41;54.98
1652;BME280;823;49.028;8.454;2023-01-25T12:50:55;101743.31;;;6.47;54.81
1652;BME280;823;49.028;8.454;2023-01-25T12:55:57;101749.03;;;6.06;55.25
1652;BME280;823;49.028;8.454;2023-01-25T13:06:43;101720.94;;;6.34;54.40
1652;BME280;823;49.028;8.454;2023-01-25T13:11:46;101713.94;;;6.09;55.00
1652;BME280;823;49.028;8.454;2023-01-25T13:16:50;101714.81;;;6.13;54.70
1652;BME280;823;49.028;8.454;2023-01-25T13:21:51;101705.47;;;6.24;54.80
1652;BME280;823;49.028;8.454;2023-01-25T13:31:57;101693.50;;;6.29;54.28
1652;BME280;823;49.028;8.454;2023-01-25T13:36:57;101683.16;;;6.20;54.43
1652;BME280;823;49.028;8.454;2023-01-25T13:47:05;101672.16;;;6.40;53.90
1652;BME280;823;49.028;8.454;2023-01-25T13:52:06;101672.13;;;6.35;53.75
1652;BME280;823;49.028;8.454;2023-01-25T13:57:11;101666.09;;;6.28;53.69
1652;BME280;823;49.028;8.454;2023-01-25T14:02:23;101669.59;;;6.43;53.17
1652;BME280;823;49.028;8.454;2023-01-25T14:07:32;101678.84;;;6.14;53.86
1652;BME280;823;49.028;8.454;2023-01-25T14:12:38;101663.50;;;6.28;53.91
1652;BME280;823;49.028;8.454;2023-01-25T14:17:39;101663.44;;;6.16;53.88
1652;BME280;823;49.028;8.454;2023-01-25T14:22:46;101663.38;;;6.02;54.00
1652;BME280;823;49.028;8.454;2023-01-25T14:27:58;101642.03;;;6.11;53.63
1652;BME280;823;49.028;8.454;2023-01-25T14:33:01;101638.66;;;6.20;53.62
1652;BME280;823;49.028;8.454;2023-01-25T14:38:39;101633.56;;;6.29;53.41
1652;BME280;823;49.028;8.454;2023-01-25T14:43:40;101625.78;;;6.18;53.50
1652;BME280;823;49.028;8.454;2023-01-25T14:48:42;101627.47;;;6.10;53.55
1652;BME280;823;49.028;8.454;2023-01-25T14:53:47;101611.22;;;6.09;53.84
1652;BME280;823;49.028;8.454;2023-01-25T14:58:48;101614.69;;;6.21;53.82
1652;BME280;823;49.028;8.454;2023-01-25T15:03:48;101612.13;;;6.24;53.67
1652;BME280;823;49.028;8.454;2023-01-25T15:08:49;101599.22;;;6.08;54.02
1652;BME280;823;49.028;8.454;2023-01-25T15:14:00;101588.91;;;6.04;53.90
1652;BME280;823;49.028;8.454;2023-01-25T15:19:01;101586.28;;;5.96;54.23
1652;BME280;823;49.028;8.454;2023-01-25T15:24:06;101588.09;;;6.19;53.41
1652;BME280;823;49.028;8.454;2023-01-25T15:29:14;101579.53;;;6.12;53.67
1652;BME280;823;49.028;8.454;2023-01-25T15:34:26;101576.16;;;6.28;53.69
1652;BME280;823;49.028;8.454;2023-01-25T15:39:29;101575.25;;;6.14;53.51
1652;BME280;823;49.028;8.454;2023-01-25T15:44:31;101561.56;;;6.20;53.55
1652;BME280;823;49.028;8.454;2023-01-25T15:49:32;101558.09;;;6.04;53.59
1652;BME280;823;49.028;8.454;2023-01-25T15:54:35;101546.00;;;5.92;53.55
1652;BME280;823;49.028;8.454;2023-01-25T15:59:37;101534.94;;;6.02;53.20
1652;BME280;823;49.028;8.454;2023-01-25T16:04:37;101532.38;;;5.97;52.85
1652;BME280;823;49.028;8.454;2023-01-25T16:09:38;101534.16;;;6.08;52.81
1652;BME280;823;49.028;8.454;2023-01-25T16:14:38;101528.97;;;6.06;52.94
1652;BME280;823;49.028;8.454;2023-01-25T16:19:38;101534.94;;;6.02;53.09
1652;BME280;823;49.028;8.454;2023-01-25T16:24:39;101530.69;;;6.03;53.12
1652;BME280;823;49.028;8.454;2023-01-25T16:29:39;101529.81;;;6.01;53.11
1652;BME280;823;49.028;8.454;2023-01-25T16:34:39;101520.34;;;5.96;53.00
1652;BME280;823;49.028;8.454;2023-01-25T16:39:40;101518.69;;;6.02;53.00
1652;BME280;823;49.028;8.454;2023-01-25T16:44:40;101519.44;;;5.85;53.43
1652;BME280;823;49.028;8.454;2023-01-25T16:49:40;101519.44;;;5.84;53.14
1652;BME280;823;49.028;8.454;2023-01-25T16:54:41;101520.25;;;5.75;53.35
1652;BME280;823;49.028;8.454;2023-01-25T16:59:41;101513.47;;;5.83;53.86
1652;BME280;823;49.028;8.454;2023-01-25T17:04:42;101511.72;;;5.79;53.45
1652;BME280;823;49.028;8.454;2023-01-25T17:09:42;101514.28;;;5.79;53.49
1652;BME280;823;49.028;8.454;2023-01-25T17:14:42;101512.56;;;5.76;53.74
1652;BME280;823;49.028;8.454;2023-01-25T17:19:43;101505.72;;;5.78;53.61
1652;BME280;823;49.028;8.454;2023-01-25T17:24:43;101496.25;;;5.67;54.13
1652;BME280;823;49.028;8.454;2023-01-25T17:29:43;101491.19;;;5.79;53.70
1652;BME280;823;49.028;8.454;2023-01-25T17:34:45;101483.50;;;5.84;53.45
1652;BME280;823;49.028;8.454;2023-01-25T17:39:45;101480.09;;;5.86;53.42
1652;BME280;823;49.028;8.454;2023-01-25T17:44:46;101487.75;;;5.77;53.91
1652;BME280;823;49.028;8.454;2023-01-25T17:49:47;101480.88;;;5.71;53.98
1652;BME280;823;49.028;8.454;2023-01-25T17:54:47;101475.75;;;5.76;53.50
1652;BME280;823;49.028;8.454;2023-01-25T17:59:47;101474.06;;;5.75;53.82
1652;BME280;823;49.028;8.454;2023-01-25T18:04:47;101464.69;;;5.82;53.56
1652;BME280;823;49.028;8.454;2023-01-25T18:09:48;101459.56;;;5.86;53.30
1652;BME280;823;49.028;8.454;2023-01-25T18:14:48;101456.09;;;5.84;53.16
1652;BME280;823;49.028;8.454;2023-01-25T18:19:48;101448.44;;;5.89;53.26
1652;BME280;823;49.028;8.454;2023-01-25T18:24:49;101447.50;;;5.71;53.65
1652;BME280;823;49.028;8.454;2023-01-25T18:30:29;101446.72;;;5.86;53.32
1652;BME280;823;49.028;8.454;2023-01-25T18:35:31;101445.81;;;5.73;53.49
1652;BME280;823;49.028;8.454;2023-01-25T18:40:31;101428.69;;;5.77;53.58
1652;BME280;823;49.028;8.454;2023-01-25T18:45:31;101428.69;;;5.78;53.25
1652;BME280;823;49.028;8.454;2023-01-25T18:50:32;101426.13;;;5.80;53.63
1652;BME280;823;49.028;8.454;2023-01-25T18:55:32;101417.59;;;5.79;53.65
1652;BME280;823;49.028;8.454;2023-01-25T19:00:33;101415.06;;;5.87;53.40
1652;BME280;823;49.028;8.454;2023-01-25T19:05:33;101407.34;;;5.87;53.64
1652;BME280;823;49.028;8.454;2023-01-25T19:10:34;101421.91;;;5.91;53.50
1652;BME280;823;49.028;8.454;2023-01-25T19:15:34;101414.19;;;5.79;53.36
1652;BME280;823;49.028;8.454;2023-01-25T19:20:34;101403.06;;;5.86;53.22
1652;BME280;823;49.028;8.454;2023-01-25T19:25:35;101404.75;;;5.83;53.49
1652;BME280;823;49.028;8.454;2023-01-25T19:30:35;101388.50;;;5.80;53.56
1652;BME280;823;49.028;8.454;2023-01-25T19:35:35;101397.09;;;5.86;53.65
1652;BME280;823;49.028;8.454;2023-01-25T19:40:36;101397.09;;;5.87;53.53
1652;BME280;823;49.028;8.454;2023-01-25T19:45:36;101389.34;;;5.76;53.59
1652;BME280;823;49.028;8.454;2023-01-25T19:50:37;101383.34;;;5.74;53.68
1652;BME280;823;49.028;8.454;2023-01-25T19:55:37;101386.78;;;5.76;53.22
1652;BME280;823;49.028;8.454;2023-01-25T20:00:37;101374.78;;;5.75;53.46
1652;BME280;823;49.028;8.454;2023-01-25T20:05:38;101362.78;;;5.74;53.78
1652;BME280;823;49.028;8.454;2023-01-25T20:10:38;101365.41;;;5.82;53.42
1652;BME280;823;49.028;8.454;2023-01-25T20:15:45;101361.94;;;5.77;53.73
1652;BME280;823;49.028;8.454;2023-01-25T20:20:56;101359.41;;;5.88;53.29
1652;BME280;823;49.028;8.454;2023-01-25T20:25:59;101358.53;;;5.76;53.57
1652;BME280;823;49.028;8.454;2023-01-25T20:31:00;101339.72;;;5.87;53.19
1652;BME280;823;49.028;8.454;2023-01-25T20:36:04;101335.44;;;5.78;53.71
1652;BME280;823;49.028;8.454;2023-01-25T20:41:07;101334.59;;;5.80;52.97
1652;BME280;823;49.028;8.454;2023-01-25T20:46:07;101327.72;;;5.81;53.15
1652;BME280;823;49.028;8.454;2023-01-25T20:51:09;101323.47;;;5.85;53.39
1652;BME280;823;49.028;8.454;2023-01-25T20:56:13;101324.31;;;5.80;53.60
1652;BME280;823;49.028;8.454;2023-01-25T21:01:15;101320.00;;;5.72;53.65
1652;BME280;823;49.028;8.454;2023-01-25T21:06:16;101302.91;;;5.77;53.57
1652;BME280;823;49.028;8.454;2023-01-25T21:11:16;101301.19;;;5.70;53.63
1652;BME280;823;49.028;8.454;2023-01-25T21:16:18;101294.34;;;5.72;53.55
1652;BME280;823;49.028;8.454;2023-01-25T21:21:28;101296.88;;;5.52;53.77
1652;BME280;823;49.028;8.454;2023-01-25T21:26:31;101291.75;;;5.56;53.56
1652;BME280;823;49.028;8.454;2023-01-25T21:31:37;101291.78;;;5.64;53.48
1652;BME280;823;49.028;8.454;2023-01-25T21:36:37;101290.06;;;5.63;53.57
1652;BME280;823;49.028;8.454;2023-01-25T21:41:38;101292.63;;;5.65;53.50
1652;BME280;823;49.028;8.454;2023-01-25T21:46:38;101282.38;;;5.71;53.64
1652;BME280;823;49.028;8.454;2023-01-25T21:51:44;101277.25;;;5.69;53.75
1652;BME280;823;49.028;8.454;2023-01-25T21:56:52;101278.09;;;5.70;53.66
1652;BME280;823;49.028;8.454;2023-01-25T22:01:53;101266.94;;;5.44;53.68
1652;BME280;823;49.028;8.454;2023-01-25T22:06:54;101272.91;;;5.39;53.77
1652;BME280;823;49.028;8.454;2023-01-25T22:11:54;101271.19;;;5.35;54.12
1652;BME280;823;49.028;8.454;2023-01-25T22:16:54;101266.06;;;5.36;54.05
1652;BME280;823;49.028;8.454;2023-01-25T22:21:55;101266.06;;;5.35;54.48
1652;BME280;823;49.028;8.454;2023-01-25T22:32:01;101278.03;;;5.42;54.29
1652;BME280;823;49.028;8.454;2023-01-25T22:37:02;101268.63;;;5.35;54.57
1652;BME280;823;49.028;8.454;2023-01-25T22:42:02;101257.44;;;5.19;54.62
1652;BME280;823;49.028;8.454;2023-01-25T22:47:03;101265.19;;;5.26;54.54
1652;BME280;823;49.028;8.454;2023-01-25T22:52:03;101269.44;;;5.26;54.49
1652;BME280;823;49.028;8.454;2023-01-25T22:57:03;101248.06;;;5.30;54.55
1652;BME280;823;49.028;8.454;2023-01-25T23:02:04;101248.94;;;5.29;54.56
1652;BME280;823;49.028;8.454;2023-01-25T23:07:04;101231.00;;;5.34;54.14
1652;BME280;823;49.028;8.454;2023-01-25T23:12:11;101224.09;;;5.17;54.80
1652;BME280;823;49.028;8.454;2023-01-25T23:17:11;101219.00;;;5.36;54.27
1652;BME280;823;49.028;8.454;2023-01-25T23:22:30;101209.63;;;5.35;54.15
1652;BME280;823;49.028;8.454;2023-01-25T23:27:30;101202.78;;;5.46;54.30
1652;BME280;823;49.028;8.454;2023-01-25T23:32:31;101189.09;;;5.39;54.37
1652;BME280;823;49.028;8.454;2023-01-25T23:37:31;101183.13;;;5.54;53.63
1652;BME280;823;49.028;8.454;2023-01-25T23:42:31;101175.41;;;5.46;54.19
1652;BME280;823;49.028;8.454;2023-01-25T23:47:32;101154.91;;;5.51;54.04
1652;BME280;823;49.028;8.454;2023-01-25T23:52:32;101164.31;;;5.61;53.58
1652;BME280;823;49.028;8.454;2023-01-25T23:57:34;101149.75;;;5.48;53.91
